sensor_id;sensor_type;location;lat;lon;timestamp;temperature;humidity
67050;DHT22;53955;52.442;13.284;2023-02-26T00:01:59;3.50;70.10
67050;DHT22;53955;52.442;13.284;2023-02-26T00:04:28;3.60;70.40
67050;DHT22;53955;52.442;13.284;2023-02-26T00:06:54;3.60;70.50
67050;DHT22;53955;52.442;13.284;2023-02-26T00:09:21;3.70;69.90
67050;DHT22;53955;52.442;13.284;2023-02-26T00:11:48;3.60;69.90
67050;DHT22;53955;52.442;13.284;2023-02-26T00:14:16;3.60;70.00
67050;DHT22;53955;52.442;13.284;2023-02-26T00:16:46;3.50;70.10
67050;DHT22;53955;52.442;13.284;2023-02-26T00:19:16;3.60;69.90
67050;DHT22;53955;52.442;13.284;2023-02-26T00:21:43;3.70;69.60
67050;DHT22;53955;52.442;13.284;2023-02-26T00:24:09;3.40;70.10
67050;DHT22;53955;52.442;13.284;2023-02-26T00:26:36;3.50;70.50
67050;DHT22;53955;52.442;13.284;2023-02-26T00:29:03;3.80;70.40
67050;DHT22;53955;52.442;13.284;2023-02-26T00:31:30;3.80;70.10
67050;DHT22;53955;52.442;13.284;2023-02-26T00:33:58;3.90;70.10
67050;DHT22;53955;52.442;13.284;2023-02-26T00:36:32;3.70;68.60
67050;DHT22;53955;52.442;13.284;2023-02-26T00:39:13;3.70;69.50
67050;DHT22;53955;52.442;13.284;2023-02-26T00:41:42;3.50;70.20
67050;DHT22;53955;52.442;13.284;2023-02-26T00:44:09;3.50;70.10
67050;DHT22;53955;52.442;13.284;2023-02-26T00:46:43;3.70;69.10
67050;DHT22;53955;52.442;13.284;2023-02-26T00:49:20;3.90;68.60
67050;DHT22;53955;52.442;13.284;2023-02-26T00:51:51;3.60;68.10
67050;DHT22;53955;52.442;13.284;2023-02-26T00:54:20;3.90;68.80
67050;DHT22;53955;52.442;13.284;2023-02-26T00:56:48;3.70;67.70
67050;DHT22;53955;52.442;13.284;2023-02-26T00:59:15;3.70;67.80
67050;DHT22;53955;52.442;13.284;2023-02-26T01:01:42;3.70;68.10
67050;DHT22;53955;52.442;13.284;2023-02-26T01:04:11;3.70;67.00
67050;DHT22;53955;52.442;13.284;2023-02-26T01:06:42;3.70;67.80
67050;DHT22;53955;52.442;13.284;2023-02-26T01:09:15;3.70;67.20
67050;DHT22;53955;52.442;13.284;2023-02-26T01:11:43;3.70;67.00
67050;DHT22;53955;52.442;13.284;2023-02-26T01:14:10;3.50;67.20
67050;DHT22;53955;52.442;13.284;2023-02-26T01:16:42;3.70;68.00
67050;DHT22;53955;52.442;13.284;2023-02-26T01:19:17;3.70;67.80
67050;DHT22;53955;52.442;13.284;2023-02-26T01:21:50;3.60;65.90
67050;DHT22;53955;52.442;13.284;2023-02-26T01:24:22;3.70;66.60
67050;DHT22;53955;52.442;13.284;2023-02-26T01:26:50;3.60;67.20
67050;DHT22;53955;52.442;13.284;2023-02-26T01:29:17;3.70;67.20
67050;DHT22;53955;52.442;13.284;2023-02-26T01:31:48;3.70;67.40
67050;DHT22;53955;52.442;13.284;2023-02-26T01:34:18;3.70;67.90
67050;DHT22;53955;52.442;13.284;2023-02-26T01:36:52;3.70;67.30
67050;DHT22;53955;52.442;13.284;2023-02-26T01:39:27;3.70;67.00
67050;DHT22;53955;52.442;13.284;2023-02-26T01:41:57;3.90;66.30
67050;DHT22;53955;52.442;13.284;2023-02-26T01:44:30;3.80;66.40
67050;DHT22;53955;52.442;13.284;2023-02-26T01:47:03;3.80;66.80
67050;DHT22;53955;52.442;13.284;2023-02-26T01:49:33;3.70;66.50
67050;DHT22;53955;52.442;13.284;2023-02-26T01:52:02;3.70;66.70
67050;DHT22;53955;52.442;13.284;2023-02-26T01:54:30;3.70;65.40
67050;DHT22;53955;52.442;13.284;2023-02-26T01:57:00;3.80;66.20
67050;DHT22;53955;52.442;13.284;2023-02-26T01:59:30;3.80;67.00
67050;DHT22;53955;52.442;13.284;2023-02-26T02:01:58;3.50;65.00
67050;DHT22;53955;52.442;13.284;2023-02-26T02:04:27;3.60;65.30
67050;DHT22;53955;52.442;13.284;2023-02-26T02:06:55;3.90;65.60
67050;DHT22;53955;52.442;13.284;2023-02-26T02:09:23;3.80;64.50
67050;DHT22;53955;52.442;13.284;2023-02-26T02:12:22;3.60;64.90
67050;DHT22;53955;52.442;13.284;2023-02-26T02:15:00;3.60;64.30
67050;DHT22;53955;52.442;13.284;2023-02-26T02:17:35;3.50;66.20
67050;DHT22;53955;52.442;13.284;2023-02-26T02:20:43;3.80;65.40
67050;DHT22;53955;52.442;13.284;2023-02-26T02:23:16;3.70;65.70
67050;DHT22;53955;52.442;13.284;2023-02-26T02:26:10;3.70;64.90
67050;DHT22;53955;52.442;13.284;2023-02-26T02:28:49;3.70;64.80
67050;DHT22;53955;52.442;13.284;2023-02-26T02:31:25;3.80;63.90
67050;DHT22;53955;52.442;13.284;2023-02-26T02:33:57;3.80;64.30
67050;DHT22;53955;52.442;13.284;2023-02-26T02:36:32;3.90;64.40
67050;DHT22;53955;52.442;13.284;2023-02-26T02:39:03;3.70;63.60
67050;DHT22;53955;52.442;13.284;2023-02-26T02:41:36;3.70;63.40
67050;DHT22;53955;52.442;13.284;2023-02-26T02:44:08;3.90;64.20
67050;DHT22;53955;52.442;13.284;2023-02-26T02:46:39;3.80;64.80
67050;DHT22;53955;52.442;13.284;2023-02-26T02:49:11;3.80;63.20
67050;DHT22;53955;52.442;13.284;2023-02-26T02:51:41;4.00;63.70
67050;DHT22;53955;52.442;13.284;2023-02-26T02:54:12;3.80;63.30
67050;DHT22;53955;52.442;13.284;2023-02-26T02:56:45;3.70;63.30
67050;DHT22;53955;52.442;13.284;2023-02-26T02:59:15;3.60;63.10
67050;DHT22;53955;52.442;13.284;2023-02-26T03:01:47;3.80;63.20
67050;DHT22;53955;52.442;13.284;2023-02-26T03:04:16;3.80;64.00
67050;DHT22;53955;52.442;13.284;2023-02-26T03:06:43;3.70;64.30
67050;DHT22;53955;52.442;13.284;2023-02-26T03:09:11;3.80;64.50
67050;DHT22;53955;52.442;13.284;2023-02-26T03:11:39;3.90;64.50
67050;DHT22;53955;52.442;13.284;2023-02-26T03:14:06;4.00;63.80
67050;DHT22;53955;52.442;13.284;2023-02-26T03:16:53;3.90;63.70
67050;DHT22;53955;52.442;13.284;2023-02-26T03:19:25;4.00;63.00
67050;DHT22;53955;52.442;13.284;2023-02-26T03:22:00;4.20;62.80
67050;DHT22;53955;52.442;13.284;2023-02-26T03:24:34;4.10;63.30
67050;DHT22;53955;52.442;13.284;2023-02-26T03:27:06;3.90;62.70
67050;DHT22;53955;52.442;13.284;2023-02-26T03:29:42;3.80;63.60
67050;DHT22;53955;52.442;13.284;2023-02-26T03:32:16;3.80;62.90
67050;DHT22;53955;52.442;13.284;2023-02-26T03:34:47;4.00;63.40
67050;DHT22;53955;52.442;13.284;2023-02-26T03:37:19;3.90;63.40
67050;DHT22;53955;52.442;13.284;2023-02-26T03:39:50;3.90;62.50
67050;DHT22;53955;52.442;13.284;2023-02-26T03:42:20;3.70;63.00
67050;DHT22;53955;52.442;13.284;2023-02-26T03:44:51;3.80;63.30
67050;DHT22;53955;52.442;13.284;2023-02-26T03:47:20;3.70;63.60
67050;DHT22;53955;52.442;13.284;2023-02-26T03:49:53;3.90;62.40
67050;DHT22;53955;52.442;13.284;2023-02-26T03:52:23;3.70;63.70
67050;DHT22;53955;52.442;13.284;2023-02-26T03:54:54;3.70;63.00
67050;DHT22;53955;52.442;13.284;2023-02-26T03:57:23;3.60;63.10
67050;DHT22;53955;52.442;13.284;2023-02-26T03:59:50;3.50;64.70
67050;DHT22;53955;52.442;13.284;2023-02-26T04:02:21;3.70;63.50
67050;DHT22;53955;52.442;13.284;2023-02-26T04:04:51;3.50;63.40
67050;DHT22;53955;52.442;13.284;2023-02-26T04:07:19;3.40;63.30
67050;DHT22;53955;52.442;13.284;2023-02-26T04:09:48;3.40;63.20
67050;DHT22;53955;52.442;13.284;2023-02-26T04:12:15;3.60;63.30
67050;DHT22;53955;52.442;13.284;2023-02-26T04:14:45;3.30;64.20
67050;DHT22;53955;52.442;13.284;2023-02-26T04:17:12;3.40;64.80
67050;DHT22;53955;52.442;13.284;2023-02-26T04:19:40;3.20;63.80
67050;DHT22;53955;52.442;13.284;2023-02-26T04:22:06;3.40;64.20
67050;DHT22;53955;52.442;13.284;2023-02-26T04:24:35;3.30;64.00
67050;DHT22;53955;52.442;13.284;2023-02-26T04:27:01;3.40;63.90
67050;DHT22;53955;52.442;13.284;2023-02-26T04:29:28;3.20;64.10
67050;DHT22;53955;52.442;13.284;2023-02-26T04:31:54;3.30;63.90
67050;DHT22;53955;52.442;13.284;2023-02-26T04:34:21;3.40;64.00
67050;DHT22;53955;52.442;13.284;2023-02-26T04:36:49;3.30;64.20
67050;DHT22;53955;52.442;13.284;2023-02-26T04:39:15;3.30;64.20
67050;DHT22;53955;52.442;13.284;2023-02-26T04:41:42;3.10;64.40
67050;DHT22;53955;52.442;13.284;2023-02-26T04:44:09;3.30;64.50
67050;DHT22;53955;52.442;13.284;2023-02-26T04:46:35;3.30;64.20
67050;DHT22;53955;52.442;13.284;2023-02-26T04:49:02;3.70;63.60
67050;DHT22;53955;52.442;13.284;2023-02-26T04:51:29;3.50;63.70
67050;DHT22;53955;52.442;13.284;2023-02-26T04:53:57;3.50;63.90
67050;DHT22;53955;52.442;13.284;2023-02-26T04:56:23;3.50;62.70
67050;DHT22;53955;52.442;13.284;2023-02-26T04:58:50;3.60;63.50
67050;DHT22;53955;52.442;13.284;2023-02-26T05:01:17;3.30;63.20
67050;DHT22;53955;52.442;13.284;2023-02-26T05:03:43;3.70;63.10
67050;DHT22;53955;52.442;13.284;2023-02-26T05:06:10;3.50;63.20
67050;DHT22;53955;52.442;13.284;2023-02-26T05:08:37;3.60;63.70
67050;DHT22;53955;52.442;13.284;2023-02-26T05:11:07;3.60;63.10
67050;DHT22;53955;52.442;13.284;2023-02-26T05:13:34;3.60;62.90
67050;DHT22;53955;52.442;13.284;2023-02-26T05:16:01;3.60;62.80
67050;DHT22;53955;52.442;13.284;2023-02-26T05:18:27;3.80;62.70
67050;DHT22;53955;52.442;13.284;2023-02-26T05:20:54;3.70;61.90
67050;DHT22;53955;52.442;13.284;2023-02-26T05:23:21;3.50;62.20
67050;DHT22;53955;52.442;13.284;2023-02-26T05:25:48;3.60;61.70
67050;DHT22;53955;52.442;13.284;2023-02-26T05:28:16;3.70;62.50
67050;DHT22;53955;52.442;13.284;2023-02-26T05:30:43;3.50;61.50
67050;DHT22;53955;52.442;13.284;2023-02-26T05:33:09;3.60;61.60
67050;DHT22;53955;52.442;13.284;2023-02-26T05:35:36;3.40;62.50
67050;DHT22;53955;52.442;13.284;2023-02-26T05:38:03;3.60;62.20
67050;DHT22;53955;52.442;13.284;2023-02-26T05:40:30;3.30;61.80
67050;DHT22;53955;52.442;13.284;2023-02-26T05:42:56;3.70;62.50
67050;DHT22;53955;52.442;13.284;2023-02-26T05:45:24;3.80;61.30
67050;DHT22;53955;52.442;13.284;2023-02-26T05:47:51;3.60;61.60
67050;DHT22;53955;52.442;13.284;2023-02-26T05:50:17;3.70;61.70
67050;DHT22;53955;52.442;13.284;2023-02-26T05:52:44;3.70;61.50
67050;DHT22;53955;52.442;13.284;2023-02-26T05:55:11;3.70;61.60
67050;DHT22;53955;52.442;13.284;2023-02-26T05:57:37;3.60;61.20
67050;DHT22;53955;52.442;13.284;2023-02-26T06:00:06;3.60;61.00
67050;DHT22;53955;52.442;13.284;2023-02-26T06:02:34;3.60;60.90
67050;DHT22;53955;52.442;13.284;2023-02-26T06:05:00;3.70;60.90
67050;DHT22;53955;52.442;13.284;2023-02-26T06:07:27;3.70;61.00
67050;DHT22;53955;52.442;13.284;2023-02-26T06:09:54;3.70;61.40
67050;DHT22;53955;52.442;13.284;2023-02-26T06:12:20;3.60;60.50
67050;DHT22;53955;52.442;13.284;2023-02-26T06:14:47;3.80;60.70
67050;DHT22;53955;52.442;13.284;2023-02-26T06:17:13;3.60;60.70
67050;DHT22;53955;52.442;13.284;2023-02-26T06:19:41;3.80;60.30
67050;DHT22;53955;52.442;13.284;2023-02-26T06:22:09;3.80;60.60
67050;DHT22;53955;52.442;13.284;2023-02-26T06:24:35;3.80;61.70
67050;DHT22;53955;52.442;13.284;2023-02-26T06:27:02;4.00;61.00
67050;DHT22;53955;52.442;13.284;2023-02-26T06:29:29;4.10;60.80
67050;DHT22;53955;52.442;13.284;2023-02-26T06:31:55;4.00;60.60
67050;DHT22;53955;52.442;13.284;2023-02-26T06:34:22;4.10;60.60
67050;DHT22;53955;52.442;13.284;2023-02-26T06:36:50;4.20;59.40
67050;DHT22;53955;52.442;13.284;2023-02-26T06:39:16;4.30;58.40
67050;DHT22;53955;52.442;13.284;2023-02-26T06:41:43;4.10;59.00
67050;DHT22;53955;52.442;13.284;2023-02-26T06:44:10;4.40;59.20
67050;DHT22;53955;52.442;13.284;2023-02-26T06:46:37;4.90;90.30
67050;DHT22;53955;52.442;13.284;2023-02-26T06:49:04;5.80;75.60
67050;DHT22;53955;52.442;13.284;2023-02-26T06:51:31;5.40;59.70
67050;DHT22;53955;52.442;13.284;2023-02-26T06:53:59;5.10;57.00
67050;DHT22;53955;52.442;13.284;2023-02-26T06:56:25;5.20;56.30
67050;DHT22;53955;52.442;13.284;2023-02-26T06:58:52;5.10;56.00
67050;DHT22;53955;52.442;13.284;2023-02-26T07:01:19;4.70;55.80
67050;DHT22;53955;52.442;13.284;2023-02-26T07:03:45;4.70;56.10
67050;DHT22;53955;52.442;13.284;2023-02-26T07:06:12;4.60;55.30
67050;DHT22;53955;52.442;13.284;2023-02-26T07:08:39;4.70;55.00
67050;DHT22;53955;52.442;13.284;2023-02-26T07:11:07;4.60;56.90
67050;DHT22;53955;52.442;13.284;2023-02-26T07:13:34;4.90;54.30
67050;DHT22;53955;52.442;13.284;2023-02-26T07:16:01;5.00;55.40
67050;DHT22;53955;52.442;13.284;2023-02-26T07:18:27;5.80;52.50
67050;DHT22;53955;52.442;13.284;2023-02-26T07:20:54;6.90;51.10
67050;DHT22;53955;52.442;13.284;2023-02-26T07:23:21;7.10;48.80
67050;DHT22;53955;52.442;13.284;2023-02-26T07:25:48;6.70;49.20
67050;DHT22;53955;52.442;13.284;2023-02-26T07:28:16;6.20;50.30
67050;DHT22;53955;52.442;13.284;2023-02-26T07:30:43;5.80;50.70
67050;DHT22;53955;52.442;13.284;2023-02-26T07:33:09;5.60;52.70
67050;DHT22;53955;52.442;13.284;2023-02-26T07:35:37;5.40;52.10
67050;DHT22;53955;52.442;13.284;2023-02-26T07:38:04;5.40;52.00
67050;DHT22;53955;52.442;13.284;2023-02-26T07:40:31;5.60;51.70
67050;DHT22;53955;52.442;13.284;2023-02-26T07:42:57;6.30;51.00
67050;DHT22;53955;52.442;13.284;2023-02-26T07:45:25;6.80;49.80
67050;DHT22;53955;52.442;13.284;2023-02-26T07:47:53;6.80;49.10
67050;DHT22;53955;52.442;13.284;2023-02-26T07:50:20;7.10;48.10
67050;DHT22;53955;52.442;13.284;2023-02-26T07:52:50;7.90;47.70
67050;DHT22;53955;52.442;13.284;2023-02-26T07:55:16;9.30;44.60
67050;DHT22;53955;52.442;13.284;2023-02-26T07:57:43;12.00;38.80
67050;DHT22;53955;52.442;13.284;2023-02-26T08:00:10;14.20;34.50
67050;DHT22;53955;52.442;13.284;2023-02-26T08:02:38;16.90;28.80
67050;DHT22;53955;52.442;13.284;2023-02-26T08:05:04;18.70;25.00
67050;DHT22;53955;52.442;13.284;2023-02-26T08:07:31;20.60;22.30
67050;DHT22;53955;52.442;13.284;2023-02-26T08:09:58;21.50;18.70
67050;DHT22;53955;52.442;13.284;2023-02-26T08:12:24;22.00;19.10
67050;DHT22;53955;52.442;13.284;2023-02-26T08:14:51;22.60;17.00
67050;DHT22;53955;52.442;13.284;2023-02-26T08:17:17;22.00;16.70
67050;DHT22;53955;52.442;13.284;2023-02-26T08:19:45;22.20;16.90
67050;DHT22;53955;52.442;13.284;2023-02-26T08:22:12;22.70;15.30
67050;DHT22;53955;52.442;13.284;2023-02-26T08:24:39;21.60;16.70
67050;DHT22;53955;52.442;13.284;2023-02-26T08:27:05;19.50;18.50
67050;DHT22;53955;52.442;13.284;2023-02-26T08:29:32;18.10;23.10
67050;DHT22;53955;52.442;13.284;2023-02-26T08:31:58;18.60;20.40
67050;DHT22;53955;52.442;13.284;2023-02-26T08:34:25;18.60;20.60
67050;DHT22;53955;52.442;13.284;2023-02-26T08:36:53;17.90;21.50
67050;DHT22;53955;52.442;13.284;2023-02-26T08:39:19;16.30;23.20
67050;DHT22;53955;52.442;13.284;2023-02-26T08:41:46;14.70;26.80
67050;DHT22;53955;52.442;13.284;2023-02-26T08:44:12;14.20;29.30
67050;DHT22;53955;52.442;13.284;2023-02-26T08:46:39;14.50;28.50
67050;DHT22;53955;52.442;13.284;2023-02-26T08:49:05;15.40;27.20
67050;DHT22;53955;52.442;13.284;2023-02-26T08:51:32;15.90;25.90
67050;DHT22;53955;52.442;13.284;2023-02-26T08:53:59;16.40;23.80
67050;DHT22;53955;52.442;13.284;2023-02-26T08:56:26;16.90;23.20
67050;DHT22;53955;52.442;13.284;2023-02-26T08:58:52;16.60;23.20
67050;DHT22;53955;52.442;13.284;2023-02-26T09:01:19;16.50;24.10
67050;DHT22;53955;52.442;13.284;2023-02-26T09:03:45;17.50;22.90
67050;DHT22;53955;52.442;13.284;2023-02-26T09:06:13;18.50;20.70
67050;DHT22;53955;52.442;13.284;2023-02-26T09:08:40;18.80;20.30
67050;DHT22;53955;52.442;13.284;2023-02-26T09:11:08;18.60;20.00
67050;DHT22;53955;52.442;13.284;2023-02-26T09:13:34;17.30;22.10
67050;DHT22;53955;52.442;13.284;2023-02-26T09:16:01;16.30;23.50
67050;DHT22;53955;52.442;13.284;2023-02-26T09:18:27;15.80;24.10
67050;DHT22;53955;52.442;13.284;2023-02-26T09:20:54;15.30;25.90
67050;DHT22;53955;52.442;13.284;2023-02-26T09:23:21;15.40;26.60
67050;DHT22;53955;52.442;13.284;2023-02-26T09:25:51;15.40;25.90
67050;DHT22;53955;52.442;13.284;2023-02-26T09:28:19;14.60;26.20
67050;DHT22;53955;52.442;13.284;2023-02-26T09:30:46;13.70;28.00
67050;DHT22;53955;52.442;13.284;2023-02-26T09:33:12;12.50;31.00
67050;DHT22;53955;52.442;13.284;2023-02-26T09:35:39;11.20;32.20
67050;DHT22;53955;52.442;13.284;2023-02-26T09:38:06;10.10;34.40
67050;DHT22;53955;52.442;13.284;2023-02-26T09:40:35;9.50;36.40
67050;DHT22;53955;52.442;13.284;2023-02-26T09:43:09;8.90;36.20
67050;DHT22;53955;52.442;13.284;2023-02-26T09:45:39;8.20;38.80
67050;DHT22;53955;52.442;13.284;2023-02-26T09:48:07;7.90;39.60
67050;DHT22;53955;52.442;13.284;2023-02-26T09:50:37;7.80;39.80
67050;DHT22;53955;52.442;13.284;2023-02-26T09:53:06;7.60;40.60
67050;DHT22;53955;52.442;13.284;2023-02-26T09:55:37;7.10;39.00
67050;DHT22;53955;52.442;13.284;2023-02-26T09:58:05;6.70;41.30
67050;DHT22;53955;52.442;13.284;2023-02-26T10:00:35;6.50;41.80
67050;DHT22;53955;52.442;13.284;2023-02-26T10:03:15;6.70;41.80
67050;DHT22;53955;52.442;13.284;2023-02-26T10:05:48;6.40;41.20
67050;DHT22;53955;52.442;13.284;2023-02-26T10:08:17;6.50;42.00
67050;DHT22;53955;52.442;13.284;2023-02-26T10:10:47;6.40;43.50
67050;DHT22;53955;52.442;13.284;2023-02-26T10:13:17;6.60;41.90
67050;DHT22;53955;52.442;13.284;2023-02-26T10:15:46;6.70;42.10
67050;DHT22;53955;52.442;13.284;2023-02-26T10:18:17;6.70;41.40
67050;DHT22;53955;52.442;13.284;2023-02-26T10:20:52;6.80;40.40
67050;DHT22;53955;52.442;13.284;2023-02-26T10:23:21;6.90;39.60
67050;DHT22;53955;52.442;13.284;2023-02-26T10:25:50;6.90;39.90
67050;DHT22;53955;52.442;13.284;2023-02-26T10:28:27;6.70;41.00
67050;DHT22;53955;52.442;13.284;2023-02-26T10:30:59;7.00;40.90
67050;DHT22;53955;52.442;13.284;2023-02-26T10:33:32;7.20;40.80
67050;DHT22;53955;52.442;13.284;2023-02-26T10:36:03;7.10;37.90
67050;DHT22;53955;52.442;13.284;2023-02-26T10:38:34;7.30;38.90
67050;DHT22;53955;52.442;13.284;2023-02-26T10:41:01;7.40;38.50
67050;DHT22;53955;52.442;13.284;2023-02-26T10:43:29;7.50;39.30
67050;DHT22;53955;52.442;13.284;2023-02-26T10:46:01;7.70;40.60
67050;DHT22;53955;52.442;13.284;2023-02-26T10:48:36;7.80;39.70
67050;DHT22;53955;52.442;13.284;2023-02-26T10:51:07;7.60;40.30
67050;DHT22;53955;52.442;13.284;2023-02-26T10:53:36;7.50;40.20
67050;DHT22;53955;52.442;13.284;2023-02-26T10:56:04;7.10;38.80
67050;DHT22;53955;52.442;13.284;2023-02-26T10:58:32;7.20;38.40
67050;DHT22;53955;52.442;13.284;2023-02-26T11:00:58;7.30;38.20
67050;DHT22;53955;52.442;13.284;2023-02-26T11:03:31;7.20;35.60
67050;DHT22;53955;52.442;13.284;2023-02-26T11:06:00;7.30;35.20
67050;DHT22;53955;52.442;13.284;2023-02-26T11:08:29;7.00;35.00
67050;DHT22;53955;52.442;13.284;2023-02-26T11:10:58;7.10;35.40
67050;DHT22;53955;52.442;13.284;2023-02-26T11:13:26;7.10;35.70
67050;DHT22;53955;52.442;13.284;2023-02-26T11:15:53;7.30;36.20
67050;DHT22;53955;52.442;13.284;2023-02-26T11:18:22;7.20;36.90
67050;DHT22;53955;52.442;13.284;2023-02-26T11:20:49;7.40;37.20
67050;DHT22;53955;52.442;13.284;2023-02-26T11:23:20;7.50;36.40
67050;DHT22;53955;52.442;13.284;2023-02-26T11:25:50;7.30;36.70
67050;DHT22;53955;52.442;13.284;2023-02-26T11:28:19;7.30;36.80
67050;DHT22;53955;52.442;13.284;2023-02-26T11:30:46;6.70;34.80
67050;DHT22;53955;52.442;13.284;2023-02-26T11:33:16;6.50;35.90
67050;DHT22;53955;52.442;13.284;2023-02-26T11:35:43;6.30;35.20
67050;DHT22;53955;52.442;13.284;2023-02-26T11:38:13;6.60;36.00
67050;DHT22;53955;52.442;13.284;2023-02-26T11:40:42;6.70;35.00
67050;DHT22;53955;52.442;13.284;2023-02-26T11:43:11;6.80;35.20
67050;DHT22;53955;52.442;13.284;2023-02-26T11:45:41;7.00;35.00
67050;DHT22;53955;52.442;13.284;2023-02-26T11:48:10;7.20;35.00
67050;DHT22;53955;52.442;13.284;2023-02-26T11:50:39;6.90;34.00
67050;DHT22;53955;52.442;13.284;2023-02-26T11:53:15;6.60;33.80
67050;DHT22;53955;52.442;13.284;2023-02-26T11:55:44;6.50;34.80
67050;DHT22;53955;52.442;13.284;2023-02-26T11:58:16;6.20;34.40
67050;DHT22;53955;52.442;13.284;2023-02-26T12:00:43;6.10;35.90
67050;DHT22;53955;52.442;13.284;2023-02-26T12:03:14;6.20;35.90
67050;DHT22;53955;52.442;13.284;2023-02-26T12:05:41;6.20;36.70
67050;DHT22;53955;52.442;13.284;2023-02-26T12:08:11;6.40;34.60
67050;DHT22;53955;52.442;13.284;2023-02-26T12:10:39;6.20;35.10
67050;DHT22;53955;52.442;13.284;2023-02-26T12:13:10;6.20;35.90
67050;DHT22;53955;52.442;13.284;2023-02-26T12:15:42;6.30;36.50
67050;DHT22;53955;52.442;13.284;2023-02-26T12:18:19;6.50;36.90
67050;DHT22;53955;52.442;13.284;2023-02-26T12:20:51;6.40;36.60
67050;DHT22;53955;52.442;13.284;2023-02-26T12:23:29;6.70;35.70
67050;DHT22;53955;52.442;13.284;2023-02-26T12:26:12;6.50;36.30
67050;DHT22;53955;52.442;13.284;2023-02-26T12:28:49;6.30;36.20
67050;DHT22;53955;52.442;13.284;2023-02-26T12:31:29;6.20;35.30
67050;DHT22;53955;52.442;13.284;2023-02-26T12:34:05;6.10;35.30
67050;DHT22;53955;52.442;13.284;2023-02-26T12:36:41;6.00;33.40
67050;DHT22;53955;52.442;13.284;2023-02-26T12:39:13;5.90;32.50
67050;DHT22;53955;52.442;13.284;2023-02-26T12:41:45;6.00;33.30
67050;DHT22;53955;52.442;13.284;2023-02-26T12:44:22;6.00;34.00
67050;DHT22;53955;52.442;13.284;2023-02-26T12:46:55;6.20;33.90
67050;DHT22;53955;52.442;13.284;2023-02-26T12:49:30;6.70;34.40
67050;DHT22;53955;52.442;13.284;2023-02-26T12:52:11;6.80;34.30
67050;DHT22;53955;52.442;13.284;2023-02-26T12:54:43;7.00;34.20
67050;DHT22;53955;52.442;13.284;2023-02-26T12:57:16;6.80;34.00
67050;DHT22;53955;52.442;13.284;2023-02-26T12:59:51;6.80;34.80
67050;DHT22;53955;52.442;13.284;2023-02-26T13:02:27;6.70;34.50
67050;DHT22;53955;52.442;13.284;2023-02-26T13:10:23;6.20;33.80
67050;DHT22;53955;52.442;13.284;2023-02-26T13:12:56;6.20;34.70
67050;DHT22;53955;52.442;13.284;2023-02-26T13:15:33;6.20;34.40
67050;DHT22;53955;52.442;13.284;2023-02-26T13:18:03;6.10;34.90
67050;DHT22;53955;52.442;13.284;2023-02-26T13:20:32;6.20;34.70
67050;DHT22;53955;52.442;13.284;2023-02-26T13:23:00;6.40;34.20
67050;DHT22;53955;52.442;13.284;2023-02-26T13:25:29;6.60;34.40
67050;DHT22;53955;52.442;13.284;2023-02-26T13:27:57;6.80;34.60
67050;DHT22;53955;52.442;13.284;2023-02-26T13:30:26;7.10;33.70
67050;DHT22;53955;52.442;13.284;2023-02-26T13:32:55;7.00;33.60
67050;DHT22;53955;52.442;13.284;2023-02-26T13:35:24;6.90;33.90
67050;DHT22;53955;52.442;13.284;2023-02-26T13:37:52;6.60;33.30
67050;DHT22;53955;52.442;13.284;2023-02-26T13:40:33;6.50;34.40
67050;DHT22;53955;52.442;13.284;2023-02-26T13:43:05;6.60;35.90
67050;DHT22;53955;52.442;13.284;2023-02-26T13:45:36;6.30;34.30
67050;DHT22;53955;52.442;13.284;2023-02-26T13:48:08;6.20;35.00
67050;DHT22;53955;52.442;13.284;2023-02-26T13:50:39;6.00;35.30
67050;DHT22;53955;52.442;13.284;2023-02-26T13:55:48;5.90;34.20
67050;DHT22;53955;52.442;13.284;2023-02-26T13:58:15;5.90;33.70
67050;DHT22;53955;52.442;13.284;2023-02-26T14:00:44;5.80;33.90
67050;DHT22;53955;52.442;13.284;2023-02-26T14:03:27;5.90;33.60
67050;DHT22;53955;52.442;13.284;2023-02-26T14:05:56;6.10;33.60
67050;DHT22;53955;52.442;13.284;2023-02-26T14:08:41;6.30;32.70
67050;DHT22;53955;52.442;13.284;2023-02-26T14:14:09;6.70;32.90
67050;DHT22;53955;52.442;13.284;2023-02-26T14:16:39;6.70;31.90
67050;DHT22;53955;52.442;13.284;2023-02-26T14:19:16;6.90;32.00
67050;DHT22;53955;52.442;13.284;2023-02-26T14:21:47;6.70;30.70
67050;DHT22;53955;52.442;13.284;2023-02-26T14:24:15;6.70;29.70
67050;DHT22;53955;52.442;13.284;2023-02-26T14:26:43;6.60;30.10
67050;DHT22;53955;52.442;13.284;2023-02-26T14:29:14;6.50;30.00
67050;DHT22;53955;52.442;13.284;2023-02-26T14:31:45;6.30;29.30
67050;DHT22;53955;52.442;13.284;2023-02-26T14:34:14;6.00;30.00
67050;DHT22;53955;52.442;13.284;2023-02-26T14:36:43;6.20;29.80
67050;DHT22;53955;52.442;13.284;2023-02-26T14:39:12;6.20;30.80
67050;DHT22;53955;52.442;13.284;2023-02-26T14:41:42;6.10;30.40
67050;DHT22;53955;52.442;13.284;2023-02-26T14:44:10;6.10;30.90
67050;DHT22;53955;52.442;13.284;2023-02-26T14:46:39;6.20;30.50
67050;DHT22;53955;52.442;13.284;2023-02-26T14:49:07;6.50;31.60
67050;DHT22;53955;52.442;13.284;2023-02-26T14:51:41;6.70;31.00
67050;DHT22;53955;52.442;13.284;2023-02-26T14:54:14;6.80;30.60
67050;DHT22;53955;52.442;13.284;2023-02-26T14:56:48;6.80;30.10
67050;DHT22;53955;52.442;13.284;2023-02-26T14:59:27;6.70;30.70
67050;DHT22;53955;52.442;13.284;2023-02-26T15:01:59;6.60;29.90
67050;DHT22;53955;52.442;13.284;2023-02-26T15:04:39;6.50;30.10
67050;DHT22;53955;52.442;13.284;2023-02-26T15:10:06;6.20;31.20
67050;DHT22;53955;52.442;13.284;2023-02-26T15:12:45;6.20;32.00
67050;DHT22;53955;52.442;13.284;2023-02-26T15:15:24;6.20;32.00
67050;DHT22;53955;52.442;13.284;2023-02-26T15:18:15;6.10;31.80
67050;DHT22;53955;52.442;13.284;2023-02-26T15:20:51;5.80;32.40
67050;DHT22;53955;52.442;13.284;2023-02-26T15:23:36;5.90;33.20
67050;DHT22;53955;52.442;13.284;2023-02-26T15:26:06;5.80;32.80
67050;DHT22;53955;52.442;13.284;2023-02-26T15:28:37;5.70;32.80
67050;DHT22;53955;52.442;13.284;2023-02-26T15:31:06;5.90;33.30
67050;DHT22;53955;52.442;13.284;2023-02-26T15:33:33;5.60;31.30
67050;DHT22;53955;52.442;13.284;2023-02-26T15:36:05;5.50;32.90
67050;DHT22;53955;52.442;13.284;2023-02-26T15:38:39;5.60;32.10
67050;DHT22;53955;52.442;13.284;2023-02-26T15:41:07;5.60;32.00
67050;DHT22;53955;52.442;13.284;2023-02-26T15:43:34;5.70;31.70
67050;DHT22;53955;52.442;13.284;2023-02-26T15:46:01;5.80;51.20
67050;DHT22;53955;52.442;13.284;2023-02-26T15:48:29;6.10;37.70
67050;DHT22;53955;52.442;13.284;2023-02-26T15:50:57;6.30;31.80
67050;DHT22;53955;52.442;13.284;2023-02-26T15:53:27;6.20;32.20
67050;DHT22;53955;52.442;13.284;2023-02-26T15:55:55;6.10;32.30
67050;DHT22;53955;52.442;13.284;2023-02-26T15:58:26;6.20;31.60
67050;DHT22;53955;52.442;13.284;2023-02-26T16:00:54;6.10;32.40